createdAt,value
2019-06-07T00:00:54.532Z,9.59
2019-06-07T00:03:29.510Z,9.60
2019-06-07T00:05:53.474Z,9.59
2019-06-07T00:08:27.853Z,9.64
2019-06-07T00:10:52.366Z,9.72
2019-06-07T00:13:20.987Z,9.87
2019-06-07T00:15:49.626Z,9.76
2019-06-07T00:18:25.277Z,9.70
2019-06-07T00:20:48.677Z,9.65
2019-06-07T00:23:22.097Z,9.56
2019-06-07T00:25:47.697Z,9.59
2019-06-07T00:28:17.309Z,9.53
2019-06-07T00:30:52.028Z,9.57
2019-06-07T00:33:20.680Z,9.55
2019-06-07T00:35:47.526Z,9.47
2019-06-07T00:38:18.849Z,9.57
2019-06-07T00:40:46.583Z,9.56
2019-06-07T00:43:17.620Z,9.50
2019-06-07T00:46:05.231Z,9.53
2019-06-07T00:48:33.907Z,9.46
2019-06-07T00:51:02.544Z,9.41
2019-06-07T00:54:12.291Z,9.41
2019-06-07T00:56:41.385Z,9.34
2019-06-07T00:59:49.922Z,9.33
2019-06-07T01:02:21.420Z,9.37
2019-06-07T01:04:48.940Z,9.39
2019-06-07T01:07:18.755Z,9.45
2019-06-07T01:09:47.833Z,9.34
2019-06-07T01:12:18.553Z,9.30
2019-06-07T01:14:46.725Z,9.33
2019-06-07T01:17:49.753Z,9.28
2019-06-07T01:20:44.827Z,9.28
2019-06-07T01:23:56.601Z,9.40
2019-06-07T01:25:43.879Z,9.43
2019-06-07T01:28:12.576Z,9.37
2019-06-07T01:30:41.147Z,9.46
2019-06-07T01:33:09.806Z,9.58
2019-06-07T01:35:38.363Z,9.57
2019-06-07T01:38:07.027Z,9.49
2019-06-07T01:40:35.668Z,9.46
2019-06-07T01:43:04.340Z,9.42
2019-06-07T01:45:32.967Z,9.49
2019-06-07T01:48:01.537Z,9.39
2019-06-07T01:50:49.475Z,9.47
2019-06-07T01:53:21.672Z,9.40
2019-06-07T01:55:48.447Z,9.33
2019-06-07T01:58:17.164Z,9.39
2019-06-07T02:01:26.735Z,9.32
2019-06-07T02:03:56.037Z,9.23
2019-06-07T02:06:27.954Z,9.15
2019-06-07T02:08:55.169Z,9.17
2019-06-07T02:11:24.335Z,9.27
2019-06-07T02:13:54.110Z,9.20
2019-06-07T02:16:25.396Z,9.17
2019-06-07T02:19:01.775Z,9.11
2019-06-07T02:21:25.995Z,9.07
2019-06-07T02:23:53.727Z,9.11
2019-06-07T02:26:22.971Z,9.07
2019-06-07T02:28:52.723Z,9.04
2019-06-07T02:31:22.315Z,8.95
2019-06-07T02:33:51.707Z,8.94
2019-06-07T02:36:24.739Z,8.89
2019-06-07T02:38:50.744Z,8.87
2019-06-07T02:41:19.392Z,8.94
2019-06-07T02:43:47.925Z,8.98
2019-06-07T02:46:45.849Z,8.99
2019-06-07T02:49:06.023Z,9.04
2019-06-07T02:51:41.170Z,8.93
2019-06-07T02:54:44.869Z,8.90
2019-06-07T02:57:13.523Z,8.93
2019-06-07T03:00:05.573Z,8.87
2019-06-07T03:02:12.579Z,8.87
2019-06-07T03:07:49.693Z,8.81
2019-06-07T03:10:18.377Z,8.95
2019-06-07T03:13:28.893Z,9.12
2019-06-07T03:18:51.820Z,9.30
2019-06-07T03:25:08.756Z,9.40
2019-06-07T03:28:17.170Z,9.47
2019-06-07T03:31:00.654Z,9.57
2019-06-07T03:33:16.114Z,9.72
2019-06-07T03:35:44.783Z,9.80
2019-06-07T03:38:13.368Z,9.85
2019-06-07T03:40:41.893Z,9.85
2019-06-07T03:43:10.551Z,9.92
2019-06-07T03:45:41.549Z,9.98
2019-06-07T03:48:09.481Z,10.14
2019-06-07T03:50:41.446Z,10.12
2019-06-07T03:53:08.460Z,10.11
2019-06-07T03:55:39.055Z,10.19
2019-06-07T04:00:42.628Z,10.30
2019-06-07T04:03:08.159Z,10.44
2019-06-07T04:05:42.797Z,10.61
2019-06-07T04:08:07.136Z,10.57
2019-06-07T04:10:54.950Z,10.60
2019-06-07T04:13:06.170Z,10.69
2019-06-07T04:15:39.220Z,10.62
2019-06-07T04:18:45.010Z,10.56
2019-06-07T04:21:13.580Z,10.69
2019-06-07T04:23:45.699Z,10.66
2019-06-07T04:26:12.584Z,10.55
2019-06-07T04:29:30.792Z,10.61
2019-06-07T04:31:11.671Z,10.53
2019-06-07T04:33:43.519Z,10.48
2019-06-07T04:36:45.579Z,10.46
2019-06-07T04:39:45.071Z,10.51
2019-06-07T04:42:34.994Z,10.64
2019-06-07T04:45:33.701Z,10.57
2019-06-07T04:48:14.873Z,10.64
2019-06-07T04:50:44.270Z,10.77
2019-06-07T04:53:14.246Z,10.79
2019-06-07T04:55:43.378Z,10.74
2019-06-07T04:58:31.719Z,10.84
2019-06-07T05:01:03.477Z,10.94
2019-06-07T05:03:50.384Z,10.95
2019-06-07T05:06:19.064Z,11.08
2019-06-07T05:09:06.989Z,11.16
2019-06-07T05:11:54.965Z,11.27
2019-06-07T05:14:23.531Z,11.22
2019-06-07T05:16:52.143Z,11.16
2019-06-07T05:19:20.791Z,11.34
2019-06-07T05:22:03.452Z,11.32
2019-06-07T05:24:19.852Z,11.34
2019-06-07T05:26:48.526Z,11.44
2019-06-07T05:29:17.269Z,11.55
2019-06-07T05:34:46.868Z,11.74
2019-06-07T05:37:12.273Z,11.75
2019-06-07T05:39:45.538Z,11.77
2019-06-07T05:42:12.100Z,11.96
2019-06-07T05:44:45.176Z,12.10
2019-06-07T05:47:12.723Z,12.08
2019-06-07T05:49:44.553Z,12.17
2019-06-07T05:52:11.656Z,12.28
2019-06-07T05:54:42.382Z,12.30
2019-06-07T05:57:10.614Z,12.44
2019-06-07T05:59:42.129Z,12.55
2019-06-07T06:02:22.178Z,12.64
2019-06-07T06:04:45.190Z,12.76
2019-06-07T06:07:10.323Z,12.90
2019-06-07T06:09:40.616Z,12.92
2019-06-07T06:12:09.284Z,13.07
2019-06-07T06:14:40.970Z,13.07
2019-06-07T06:17:08.331Z,13.21
2019-06-07T06:19:39.730Z,13.22
2019-06-07T06:22:07.378Z,13.32
2019-06-07T06:24:37.282Z,13.39
2019-06-07T06:30:01.025Z,13.58
2019-06-07T06:32:41.685Z,13.63
2019-06-07T06:35:00.037Z,13.66
2019-06-07T06:37:28.655Z,13.73
2019-06-07T06:39:57.289Z,13.79
2019-06-07T06:42:25.934Z,13.85
2019-06-07T06:44:54.597Z,14.02
2019-06-07T06:47:23.188Z,14.16
2019-06-07T06:49:54.373Z,14.48
2019-06-07T06:52:22.257Z,14.87
2019-06-07T06:54:59.707Z,15.66
2019-06-07T06:57:21.245Z,16.51
2019-06-07T06:59:52.507Z,17.70
2019-06-07T07:02:20.212Z,18.54
2019-06-07T07:04:52.232Z,19.67
2019-06-07T07:07:59.012Z,20.45
2019-06-07T07:10:51.080Z,21.11
2019-06-07T07:13:17.629Z,22.06
2019-06-07T07:15:50.028Z,22.71
2019-06-07T07:18:16.671Z,23.21
2019-06-07T07:20:47.534Z,23.44
2019-06-07T07:23:15.590Z,24.16
2019-06-07T07:25:49.318Z,24.68
2019-06-07T07:28:14.663Z,25.22
2019-06-07T07:31:02.602Z,26.05
2019-06-07T07:36:38.296Z,26.35
2019-06-07T07:39:00.463Z,26.55
2019-06-07T07:41:21.759Z,27.12
2019-06-07T07:43:59.505Z,27.54
2019-06-07T07:46:29.194Z,28.38
2019-06-07T07:48:54.206Z,28.18
2019-06-07T07:51:21.586Z,27.66
2019-06-07T07:54:02.156Z,27.92
2019-06-07T07:56:20.671Z,27.92
2019-06-07T07:58:51.159Z,28.08
2019-06-07T08:01:19.717Z,27.91
2019-06-07T08:03:48.332Z,27.87
2019-06-07T08:06:16.963Z,28.08
2019-06-07T08:08:46.346Z,28.16
2019-06-07T08:11:16.013Z,27.35
2019-06-07T08:13:45.683Z,27.49
2019-06-07T08:16:18.549Z,27.15
2019-06-07T08:18:45.513Z,27.50
2019-06-07T08:21:24.721Z,27.67
2019-06-07T08:23:44.554Z,27.18
2019-06-07T08:26:13.217Z,26.88
2019-06-07T08:28:41.795Z,25.93
2019-06-07T08:31:10.473Z,25.81
2019-06-07T08:33:39.110Z,26.08
2019-06-07T08:36:20.025Z,25.49
2019-06-07T08:38:47.547Z,25.06
2019-06-07T08:41:11.943Z,24.36
2019-06-07T08:43:38.870Z,23.71
2019-06-07T08:46:08.147Z,23.85
2019-06-07T08:48:37.840Z,23.87
2019-06-07T08:51:08.415Z,23.75
2019-06-07T08:53:36.877Z,23.80
2019-06-07T08:56:10.188Z,23.70
2019-06-07T08:58:36.028Z,23.54
2019-06-07T09:01:08.444Z,23.63
2019-06-07T09:03:35.147Z,23.26
2019-06-07T09:06:16.392Z,23.13
2019-06-07T09:08:34.182Z,23.12
2019-06-07T09:11:10.200Z,23.20
2019-06-07T09:13:33.398Z,23.40
2019-06-07T09:16:08.262Z,23.60
2019-06-07T09:18:42.778Z,23.71
2019-06-07T09:21:09.096Z,23.74
2019-06-07T09:23:34.711Z,23.89
2019-06-07T09:26:10.540Z,24.13
2019-06-07T09:29:13.606Z,23.85
2019-06-07T09:31:52.963Z,23.85
2019-06-07T09:34:15.100Z,24.07
2019-06-07T09:36:43.062Z,23.84
2019-06-07T09:39:12.629Z,23.69
2019-06-07T09:41:49.508Z,23.85
2019-06-07T09:44:23.960Z,23.93
2019-06-07T09:46:42.786Z,23.76
2019-06-07T09:52:10.352Z,24.30
2019-06-07T09:55:06.185Z,24.43
2019-06-07T09:57:16.478Z,24.39
2019-06-07T09:59:37.757Z,24.59
2019-06-07T10:02:09.584Z,24.55
2019-06-07T10:04:36.807Z,24.62
2019-06-07T10:07:31.787Z,24.90
2019-06-07T10:10:12.672Z,25.08
2019-06-07T10:12:25.459Z,25.23
2019-06-07T10:14:54.107Z,25.32
2019-06-07T10:17:22.795Z,25.34
2019-06-07T10:19:51.448Z,25.60
2019-06-07T10:22:39.403Z,25.51
2019-06-07T10:28:16.209Z,25.54
2019-06-07T10:30:44.790Z,25.38
2019-06-07T10:33:32.652Z,25.69
2019-06-07T10:36:02.479Z,25.83
2019-06-07T10:38:31.698Z,25.69
2019-06-07T10:41:00.757Z,25.67
2019-06-07T10:43:30.775Z,25.31
2019-06-07T10:49:08.014Z,25.96
2019-06-07T10:51:37.984Z,26.28
2019-06-07T10:54:22.979Z,26.10
2019-06-07T10:56:37.078Z,26.34
2019-06-07T10:59:06.986Z,26.50
2019-06-07T11:01:36.091Z,26.64
2019-06-07T11:04:05.748Z,26.85
2019-06-07T11:06:35.156Z,26.85
2019-06-07T11:09:23.071Z,26.68
2019-06-07T11:11:51.689Z,26.62
2019-06-07T11:14:20.347Z,26.47
2019-06-07T11:16:48.941Z,26.79
2019-06-07T11:19:19.606Z,26.91
2019-06-07T11:21:47.985Z,26.84
2019-06-07T11:24:21.862Z,26.90
2019-06-07T11:29:55.147Z,26.58
2019-06-07T11:32:23.719Z,26.95
2019-06-07T11:34:52.292Z,27.05
2019-06-07T11:37:20.954Z,27.11
2019-06-07T11:39:49.645Z,27.29
2019-06-07T11:42:20.031Z,27.34
2019-06-07T11:44:56.769Z,27.35
2019-06-07T11:47:59.942Z,27.19
2019-06-07T11:50:29.228Z,27.13
2019-06-07T11:52:57.953Z,27.10
2019-06-07T11:55:26.636Z,27.34
2019-06-07T11:57:55.318Z,27.54
2019-06-07T12:01:03.777Z,27.84
2019-06-07T12:03:32.503Z,28.13
2019-06-07T12:06:01.148Z,28.09
2019-06-07T12:08:29.830Z,27.84
2019-06-07T12:10:58.474Z,28.16
2019-06-07T12:13:27.216Z,28.16
2019-06-07T12:15:55.883Z,28.28
2019-06-07T12:18:43.832Z,28.01
2019-06-07T12:21:13.663Z,28.05
2019-06-07T12:23:43.036Z,28.04
2019-06-07T12:26:12.301Z,27.88
2019-06-07T12:28:42.056Z,27.70
2019-06-07T12:31:10.935Z,27.93
2019-06-07T12:33:39.542Z,28.19
2019-06-07T12:36:08.235Z,28.66
2019-06-07T12:38:36.907Z,28.50
2019-06-07T12:41:24.816Z,28.28
2019-06-07T12:43:53.420Z,28.28
2019-06-07T12:46:27.966Z,28.75
2019-06-07T12:48:52.633Z,28.76
2019-06-07T12:51:40.775Z,28.93
2019-06-07T12:54:09.715Z,28.93
2019-06-07T12:56:57.796Z,29.21
2019-06-07T12:59:26.812Z,29.21
2019-06-07T13:01:55.656Z,29.20
2019-06-07T13:04:24.988Z,29.08
2019-06-07T13:06:55.150Z,29.22
2019-06-07T13:09:24.207Z,29.26
2019-06-07T13:11:52.843Z,29.22
2019-06-07T13:14:22.109Z,29.16
2019-06-07T13:16:51.929Z,29.40
2019-06-07T13:19:20.631Z,29.22
2019-06-07T13:21:49.282Z,29.43
2019-06-07T13:24:18.911Z,29.25
2019-06-07T13:26:48.384Z,29.43
2019-06-07T13:29:18.634Z,29.76
2019-06-07T13:31:47.387Z,29.95
2019-06-07T13:34:16.308Z,30.29
2019-06-07T13:36:46.443Z,30.45
2019-06-07T13:39:15.115Z,30.47
2019-06-07T13:41:43.767Z,30.55
2019-06-07T13:44:12.440Z,30.31
2019-06-07T13:46:41.075Z,30.36
2019-06-07T13:49:09.745Z,30.46
2019-06-07T13:51:38.428Z,30.59
2019-06-07T13:54:07.163Z,30.77
2019-06-07T13:56:35.805Z,30.60
2019-06-07T14:01:59.370Z,30.63
2019-06-07T14:04:29.133Z,30.22
2019-06-07T14:06:58.420Z,30.29
2019-06-07T14:09:27.641Z,30.64
2019-06-07T14:11:57.487Z,30.31
2019-06-07T14:14:27.442Z,30.55
2019-06-07T14:16:56.447Z,30.16
2019-06-07T14:19:26.411Z,30.09
2019-06-07T14:21:55.444Z,30.44
2019-06-07T14:24:25.196Z,30.44
2019-06-07T14:27:13.467Z,30.09
2019-06-07T14:29:42.150Z,30.23
2019-06-07T14:32:10.804Z,30.61
2019-06-07T14:34:39.492Z,30.62
2019-06-07T14:37:08.187Z,30.47
2019-06-07T14:39:36.846Z,30.39
2019-06-07T14:42:09.895Z,30.54
2019-06-07T14:44:35.907Z,30.75
2019-06-07T14:47:04.540Z,31.00
2019-06-07T14:49:34.628Z,30.98
2019-06-07T14:52:03.947Z,31.04
2019-06-07T14:54:36.999Z,31.24
2019-06-07T14:57:04.448Z,31.41
2019-06-07T14:59:34.774Z,31.37
2019-06-07T15:02:03.489Z,31.20
2019-06-07T15:04:32.873Z,31.31
2019-06-07T15:07:02.546Z,31.17
2019-06-07T15:09:31.232Z,30.77
2019-06-07T15:11:59.877Z,30.98
2019-06-07T15:14:29.312Z,30.88
2019-06-07T15:16:58.983Z,30.88
2019-06-07T15:19:28.874Z,31.15
2019-06-07T15:21:58.023Z,30.79
2019-06-07T15:27:02.187Z,30.64
2019-06-07T15:29:31.814Z,30.54
2019-06-07T15:32:01.211Z,30.51
2019-06-07T15:34:30.512Z,30.45
2019-06-07T15:37:00.368Z,30.56
2019-06-07T15:39:29.014Z,30.46
2019-06-07T15:41:57.691Z,30.71
2019-06-07T15:44:26.324Z,30.92
2019-06-07T15:46:55.007Z,30.88
2019-06-07T15:49:23.649Z,30.98
2019-06-07T15:51:52.294Z,30.67
2019-06-07T15:54:20.990Z,30.55
2019-06-07T15:56:49.594Z,30.56
2019-06-07T15:59:18.223Z,30.49
2019-06-07T16:01:46.899Z,30.39
2019-06-07T16:04:15.484Z,30.69
2019-06-07T16:06:44.094Z,30.80
2019-06-07T16:09:12.714Z,30.62
2019-06-07T16:11:42.069Z,30.62
2019-06-07T16:14:11.745Z,30.54
2019-06-07T16:16:41.375Z,30.16
2019-06-07T16:19:10.690Z,29.98
2019-06-07T16:21:39.525Z,29.98
2019-06-07T16:24:08.165Z,29.98
2019-06-07T16:26:38.135Z,29.87
2019-06-07T16:29:07.227Z,29.80
2019-06-07T16:31:36.577Z,29.95
2019-06-07T16:34:06.266Z,29.95
2019-06-07T16:36:36.106Z,29.98
2019-06-07T16:39:45.124Z,30.15
2019-06-07T16:42:13.766Z,29.92
2019-06-07T16:44:42.638Z,29.90
2019-06-07T16:47:11.299Z,30.10
2019-06-07T16:49:40.739Z,30.12
2019-06-07T16:52:10.371Z,30.06
2019-06-07T16:54:39.361Z,29.76
2019-06-07T16:57:09.455Z,29.56
2019-06-07T16:59:38.793Z,29.07
2019-06-07T17:07:57.789Z,28.03
2019-06-07T17:10:26.485Z,27.68
2019-06-07T17:12:55.287Z,27.53
2019-06-07T17:15:24.087Z,27.34
2019-06-07T17:17:52.700Z,27.31
2019-06-07T17:21:01.196Z,27.27
2019-06-07T17:23:29.817Z,27.10
2019-06-07T17:25:58.567Z,26.91
2019-06-07T17:28:27.255Z,26.78
2019-06-07T17:30:55.940Z,26.81
2019-06-07T17:33:24.555Z,26.66
2019-06-07T17:36:12.587Z,26.56
2019-06-07T17:38:42.454Z,26.40
2019-06-07T17:41:11.660Z,26.34
2019-06-07T17:44:00.553Z,26.28
2019-06-07T17:46:29.972Z,26.14
2019-06-07T17:48:58.613Z,26.19
2019-06-07T17:51:27.188Z,25.74
2019-06-07T17:53:55.871Z,23.96
2019-06-07T17:56:24.422Z,23.38
2019-06-07T17:58:53.063Z,21.80
2019-06-07T18:01:21.739Z,20.40
2019-06-07T18:03:51.263Z,19.96
2019-06-07T18:06:20.805Z,20.26
2019-06-07T18:09:29.281Z,20.41
2019-06-07T18:11:57.927Z,20.25
2019-06-07T18:14:26.716Z,19.91
2019-06-07T18:16:55.365Z,19.35
2019-06-07T18:19:24.041Z,19.06
2019-06-07T18:21:58.604Z,18.81
2019-06-07T18:24:23.073Z,18.50
2019-06-07T18:26:52.960Z,18.52
2019-06-07T18:29:22.132Z,18.25
2019-06-07T18:31:50.795Z,18.09
2019-06-07T18:34:19.825Z,17.81
2019-06-07T18:36:48.969Z,17.42
2019-06-07T18:39:18.796Z,17.04
2019-06-07T18:41:47.468Z,17.07
2019-06-07T18:44:21.643Z,17.06
2019-06-07T18:46:46.506Z,16.90
2019-06-07T18:49:15.126Z,16.79
2019-06-07T18:54:33.025Z,16.60
2019-06-07T18:57:01.672Z,16.62
2019-06-07T18:59:30.364Z,16.55
2019-06-07T19:01:59.019Z,16.57
2019-06-07T19:04:27.694Z,16.60
2019-06-07T19:06:56.463Z,16.46
2019-06-07T19:09:25.029Z,16.41
2019-06-07T19:11:55.160Z,16.44
2019-06-07T19:14:36.279Z,16.23
2019-06-07T19:16:55.561Z,16.35
2019-06-07T19:19:24.916Z,16.14
2019-06-07T19:21:53.982Z,16.06
2019-06-07T19:24:23.862Z,16.05
2019-06-07T19:26:52.583Z,15.92
2019-06-07T19:29:21.159Z,15.95
2019-06-07T19:31:50.781Z,15.76
2019-06-07T19:34:19.451Z,15.66
2019-06-07T19:36:49.157Z,15.67
2019-06-07T19:39:17.919Z,15.61
2019-06-07T19:41:46.561Z,15.51
2019-06-07T19:44:15.235Z,15.50
2019-06-07T19:46:43.892Z,15.52
2019-06-07T19:49:12.582Z,15.53
2019-06-07T19:51:41.260Z,15.34
2019-06-07T19:54:09.890Z,15.31
2019-06-07T19:56:38.566Z,15.37
2019-06-07T19:59:07.237Z,15.50
2019-06-07T20:01:35.927Z,15.30
2019-06-07T20:04:04.637Z,15.22
2019-06-07T20:06:33.266Z,15.23
2019-06-07T20:09:02.971Z,15.33
2019-06-07T20:11:32.355Z,15.26
2019-06-07T20:14:01.029Z,15.32
2019-06-07T20:16:57.124Z,15.36
2019-06-07T20:19:26.900Z,15.28
2019-06-07T20:21:56.795Z,15.22
2019-06-07T20:24:27.487Z,15.13
2019-06-07T20:26:56.311Z,15.04
2019-06-07T20:29:26.456Z,15.06
2019-06-07T20:31:56.249Z,15.00
2019-06-07T20:34:25.764Z,14.95
2019-06-07T20:36:54.442Z,14.94
2019-06-07T20:39:23.094Z,14.91
2019-06-07T20:41:51.680Z,14.82
2019-06-07T20:44:20.293Z,14.79
2019-06-07T20:46:48.964Z,14.82
2019-06-07T20:49:17.471Z,14.76
2019-06-07T20:51:46.164Z,14.71
2019-06-07T20:54:14.847Z,14.75
2019-06-07T20:56:43.516Z,14.81
2019-06-07T20:59:12.324Z,14.83
2019-06-07T21:01:42.836Z,14.77
2019-06-07T21:04:11.612Z,14.82
2019-06-07T21:06:40.534Z,14.81
2019-06-07T21:09:09.715Z,14.75
2019-06-07T21:11:39.626Z,14.77
2019-06-07T21:14:08.299Z,14.77
2019-06-07T21:16:56.200Z,14.83
2019-06-07T21:19:24.846Z,14.73
2019-06-07T21:21:53.459Z,14.76
2019-06-07T21:24:22.358Z,14.68
2019-06-07T21:26:53.348Z,14.67
2019-06-07T21:29:22.421Z,14.64
2019-06-07T21:31:51.965Z,14.64
2019-06-07T21:34:40.633Z,14.68
2019-06-07T21:37:09.946Z,14.63
2019-06-07T21:39:39.728Z,14.66
2019-06-07T21:42:08.336Z,14.63
2019-06-07T21:44:36.901Z,14.70
2019-06-07T21:47:06.445Z,14.68
2019-06-07T21:49:36.402Z,14.66
2019-06-07T21:52:06.439Z,14.68
2019-06-07T21:54:35.806Z,14.76
2019-06-07T21:57:04.753Z,14.68
2019-06-07T21:59:34.178Z,14.67
2019-06-07T22:02:03.279Z,14.67
2019-06-07T22:04:33.304Z,14.62
2019-06-07T22:07:03.208Z,14.55
2019-06-07T22:09:51.687Z,14.52
2019-06-07T22:12:20.379Z,14.45
2019-06-07T22:15:26.787Z,14.46
2019-06-07T22:17:38.925Z,14.42
2019-06-07T22:20:28.357Z,14.52
2019-06-07T22:22:56.960Z,14.55
2019-06-07T22:25:25.675Z,14.45
2019-06-07T22:27:54.377Z,14.40
2019-06-07T22:30:23.067Z,14.45
2019-06-07T22:32:51.993Z,14.40
2019-06-07T22:35:20.632Z,14.40
2019-06-07T22:37:49.254Z,14.42
2019-06-07T22:42:52.454Z,14.55
2019-06-07T22:48:11.378Z,14.56
2019-06-07T22:50:41.299Z,14.62
2019-06-07T22:53:09.973Z,14.57
2019-06-07T22:56:18.476Z,14.59
2019-06-07T22:58:47.117Z,14.55
2019-06-07T23:01:17.105Z,14.59
2019-06-07T23:03:47.044Z,14.55
2019-06-07T23:06:16.713Z,14.59
2019-06-07T23:08:46.040Z,14.58
2019-06-07T23:11:15.175Z,14.49
2019-06-07T23:13:45.096Z,14.59
2019-06-07T23:16:13.672Z,14.50
2019-06-07T23:18:42.275Z,14.43
2019-06-07T23:21:11.653Z,14.42
2019-06-07T23:24:00.525Z,14.49
2019-06-07T23:26:29.135Z,14.55
2019-06-07T23:28:57.695Z,14.45
2019-06-07T23:31:26.297Z,14.45
2019-06-07T23:34:14.722Z,14.46
2019-06-07T23:36:43.801Z,14.36
2019-06-07T23:39:13.126Z,14.28
2019-06-07T23:41:42.844Z,14.35
2019-06-07T23:44:13.216Z,14.26
2019-06-07T23:46:42.478Z,14.23
2019-06-07T23:49:12.042Z,14.34
2019-06-07T23:54:32.040Z,14.18
2019-06-07T23:57:01.220Z,14.22
2019-06-07T23:59:29.899Z,14.17
